createdAt,value
2023-06-05T00:01:53.917Z,100408.44
2023-06-05T00:04:22.517Z,100489.84
2023-06-05T00:06:49.255Z,100521.84
2023-06-05T00:09:16.354Z,100640.41
2023-06-05T00:11:43.166Z,100357.09
2023-06-05T00:14:12.142Z,100633.03
2023-06-05T00:16:39.223Z,100656.84
2023-06-05T00:19:06.306Z,100508.50
2023-06-05T00:21:32.848Z,100663.44
2023-06-05T00:23:59.583Z,100463.69
2023-06-05T00:26:26.216Z,100544.47
2023-06-05T00:28:52.703Z,100646.88
2023-06-05T00:31:19.844Z,100670.22
2023-06-05T00:33:46.647Z,100498.34
2023-06-05T00:36:13.328Z,100599.69
2023-06-05T00:38:40.599Z,100554.09
2023-06-05T00:41:07.502Z,100599.59
2023-06-05T00:43:34.258Z,100512.53
2023-06-05T00:46:04.581Z,100644.50
2023-06-05T00:48:33.925Z,100551.88
2023-06-05T00:51:00.854Z,100522.00
2023-06-05T00:53:28.745Z,100657.47
2023-06-05T00:55:55.648Z,100539.50
2023-06-05T00:58:22.649Z,100435.91
2023-06-05T01:00:50.680Z,100620.75
2023-06-05T01:03:18.675Z,100544.50
2023-06-05T01:05:49.142Z,100506.13
2023-06-05T01:08:17.970Z,100485.75
2023-06-05T01:10:45.442Z,100507.25
2023-06-05T01:13:26.179Z,100587.28
2023-06-05T01:15:54.450Z,100494.25
2023-06-05T01:18:23.223Z,100603.25
2023-06-05T01:20:49.940Z,100544.19
2023-06-05T01:23:16.395Z,100551.41
2023-06-05T01:25:43.660Z,100555.56
2023-06-05T01:28:29.948Z,100645.84
2023-06-05T01:31:04.666Z,100585.25
2023-06-05T01:33:42.971Z,100598.13
2023-06-05T01:36:12.436Z,100589.41
2023-06-05T01:38:41.499Z,100514.50
2023-06-05T01:41:09.502Z,100583.59
2023-06-05T01:43:36.933Z,100620.63
2023-06-05T01:46:08.289Z,100621.47
2023-06-05T01:48:36.597Z,100514.09
2023-06-05T01:51:03.397Z,100479.47
2023-06-05T01:53:30.712Z,100626.63
2023-06-05T01:56:00.983Z,100357.31
2023-06-05T01:58:28.216Z,100610.63
2023-06-05T02:00:57.994Z,100572.94
2023-06-05T02:03:25.437Z,100484.16
2023-06-05T02:05:52.526Z,100499.41
2023-06-05T02:08:23.888Z,100527.78
2023-06-05T02:10:51.481Z,100501.03
2023-06-05T02:13:20.241Z,100479.78
2023-06-05T02:15:47.383Z,100602.41
2023-06-05T02:18:14.330Z,100445.50
2023-06-05T02:20:42.354Z,100407.72
2023-06-05T02:23:09.420Z,100532.16
2023-06-05T02:25:35.950Z,100585.94
2023-06-05T02:28:02.823Z,100493.56
2023-06-05T02:30:29.331Z,100564.84
2023-06-05T02:32:58.113Z,100460.50
2023-06-05T02:35:25.126Z,100614.44
2023-06-05T02:37:51.712Z,100557.97
2023-06-05T02:40:18.361Z,100515.38
2023-06-05T02:42:44.916Z,100515.13
2023-06-05T02:45:11.543Z,100471.19
2023-06-05T02:47:38.157Z,100583.41
2023-06-05T02:50:05.241Z,100509.44
2023-06-05T02:52:36.456Z,100561.38
2023-06-05T02:55:06.118Z,100541.56
2023-06-05T02:57:34.625Z,100593.28
2023-06-05T03:00:04.980Z,100590.19
2023-06-05T03:02:31.515Z,100565.88
2023-06-05T03:04:58.049Z,100590.84
2023-06-05T03:07:24.562Z,100498.88
2023-06-05T03:09:51.102Z,100510.38
2023-06-05T03:12:17.608Z,100390.50
2023-06-05T03:14:44.161Z,100548.28
2023-06-05T03:17:10.677Z,100517.50
2023-06-05T03:19:37.226Z,100598.56
2023-06-05T03:22:05.122Z,100565.63
2023-06-05T03:24:31.603Z,100591.00
2023-06-05T03:26:58.180Z,100576.59
2023-06-05T03:29:25.965Z,100435.59
2023-06-05T03:31:52.471Z,100524.75
2023-06-05T03:34:19.934Z,100554.22
2023-06-05T03:36:46.548Z,100615.91
2023-06-05T03:39:13.180Z,100533.13
2023-06-05T03:41:39.663Z,100440.38
2023-06-05T03:44:08.088Z,100618.78
2023-06-05T03:46:40.350Z,100511.69
2023-06-05T03:49:10.037Z,100483.81
2023-06-05T03:51:37.363Z,100597.97
2023-06-05T03:54:04.636Z,100553.19
2023-06-05T03:56:40.279Z,100596.53
2023-06-05T03:59:20.491Z,100487.41
2023-06-05T04:01:47.214Z,100587.41
2023-06-05T04:04:13.939Z,100604.56
2023-06-05T04:06:41.597Z,100612.66
2023-06-05T04:09:12.945Z,100614.59
2023-06-05T04:11:41.500Z,100591.69
2023-06-05T04:14:09.078Z,100588.03
2023-06-05T04:16:39.986Z,100522.72
2023-06-05T04:19:11.055Z,100405.81
2023-06-05T04:21:38.794Z,100621.25
2023-06-05T04:24:08.420Z,100448.72
2023-06-05T04:26:35.676Z,100548.94
2023-06-05T04:29:07.106Z,100581.56
2023-06-05T04:31:35.351Z,100594.72
2023-06-05T04:34:03.079Z,100511.94
2023-06-05T04:36:29.725Z,100527.47
2023-06-05T04:38:57.184Z,100616.03
2023-06-05T04:41:23.920Z,100371.63
2023-06-05T04:43:50.616Z,100404.41
2023-06-05T04:46:17.294Z,100475.53
2023-06-05T04:48:43.901Z,100590.06
2023-06-05T04:51:10.872Z,100461.28
2023-06-05T04:53:38.729Z,100516.28
2023-06-05T04:56:05.766Z,100619.78
2023-06-05T04:58:32.923Z,100498.63
2023-06-05T05:01:06.023Z,100480.94
2023-06-05T05:03:33.044Z,100582.66
2023-06-05T05:05:59.736Z,100496.50
2023-06-05T05:08:26.260Z,100639.69
2023-06-05T05:10:52.758Z,100441.31
2023-06-05T05:13:20.448Z,100535.16
2023-06-05T05:15:48.068Z,100594.00
2023-06-05T05:18:14.617Z,100438.19
2023-06-05T05:20:41.365Z,100540.75
2023-06-05T05:23:09.201Z,100570.38
2023-06-05T05:25:38.497Z,100474.91
2023-06-05T05:28:05.852Z,100522.19
2023-06-05T05:30:33.796Z,100584.47
2023-06-05T05:33:00.563Z,100537.13
2023-06-05T05:35:27.196Z,100366.47
2023-06-05T05:37:53.737Z,100536.31
2023-06-05T05:40:20.515Z,100542.31
2023-06-05T05:42:48.564Z,100423.09
2023-06-05T05:45:15.222Z,100548.38
2023-06-05T05:47:41.942Z,100448.44
2023-06-05T05:50:09.085Z,100523.50
2023-06-05T05:52:37.251Z,100492.78
2023-06-05T05:55:04.888Z,100481.25
2023-06-05T05:57:31.491Z,100605.03
2023-06-05T05:59:57.975Z,100631.50
2023-06-05T06:02:26.253Z,100637.97
2023-06-05T06:04:52.838Z,100388.69
2023-06-05T06:07:19.628Z,100627.50
2023-06-05T06:09:46.746Z,100477.84
2023-06-05T06:12:14.491Z,100386.00
2023-06-05T06:14:42.013Z,100392.13
2023-06-05T06:17:15.750Z,100641.28
2023-06-05T06:19:43.745Z,100560.16
2023-06-05T06:22:13.745Z,100481.34
2023-06-05T06:24:42.100Z,100628.72
2023-06-05T06:29:53.233Z,100561.84
2023-06-05T06:32:20.878Z,100558.66
2023-06-05T06:34:47.819Z,100626.19
2023-06-05T06:37:18.264Z,100575.44
2023-06-05T06:39:46.781Z,100642.03
2023-06-05T06:42:13.821Z,100474.63
2023-06-05T06:44:42.641Z,100558.75
2023-06-05T06:47:12.185Z,100487.97
2023-06-05T06:49:40.662Z,100636.06
2023-06-05T06:52:07.226Z,100645.16
2023-06-05T06:54:34.887Z,100630.53
2023-06-05T06:57:02.008Z,100640.06
2023-06-05T06:59:28.534Z,100581.00
2023-06-05T07:02:13.324Z,100446.66
2023-06-05T07:05:12.866Z,100641.16
2023-06-05T07:10:20.847Z,100641.75
2023-06-05T07:12:47.350Z,100596.88
2023-06-05T07:15:14.913Z,100555.84
2023-06-05T07:17:41.546Z,100565.94
2023-06-05T07:20:10.952Z,100409.09
2023-06-05T07:22:37.755Z,100639.19
2023-06-05T07:25:05.935Z,100565.78
2023-06-05T07:27:32.948Z,100620.59
2023-06-05T07:30:00.165Z,100593.44
2023-06-05T07:32:26.898Z,100590.59
2023-06-05T07:34:53.806Z,100540.31
2023-06-05T07:37:20.480Z,100579.34
2023-06-05T07:39:48.772Z,100580.34
2023-06-05T07:42:16.627Z,100622.44
2023-06-05T07:44:43.474Z,100410.50
2023-06-05T07:47:13.190Z,100627.00
2023-06-05T07:50:16.698Z,100575.00
2023-06-05T07:52:43.219Z,100616.81
2023-06-05T07:55:10.752Z,100522.97
2023-06-05T07:57:37.935Z,100401.28
2023-06-05T08:00:11.103Z,100579.34
2023-06-05T08:02:38.641Z,100426.13
2023-06-05T08:05:06.241Z,100628.22
2023-06-05T08:07:32.952Z,100588.22
2023-06-05T08:09:59.580Z,100645.69
2023-06-05T08:12:28.011Z,100397.91
2023-06-05T08:17:41.992Z,100489.44
2023-06-05T08:20:24.521Z,100481.78
2023-06-05T08:23:20.264Z,100638.16
2023-06-05T08:26:06.198Z,100550.72
2023-06-05T08:28:39.846Z,100486.41
2023-06-05T08:31:08.057Z,100375.84
2023-06-05T08:33:35.821Z,100535.19
2023-06-05T08:36:05.215Z,100538.13
2023-06-05T08:38:33.943Z,100549.47
2023-06-05T08:41:06.466Z,100628.53
2023-06-05T08:43:33.172Z,100469.19
2023-06-05T08:46:00.858Z,100473.94
2023-06-05T08:48:27.577Z,100565.91
2023-06-05T08:50:58.833Z,100500.06
2023-06-05T08:53:29.969Z,100455.59
2023-06-05T08:55:59.831Z,100603.88
2023-06-05T08:58:26.388Z,100394.19
2023-06-05T09:00:53.457Z,100617.06
2023-06-05T09:03:21.570Z,100451.41
2023-06-05T09:05:49.359Z,100534.84
2023-06-05T09:08:31.826Z,100524.28
2023-06-05T09:11:28.789Z,100591.41
2023-06-05T09:14:01.603Z,100495.06
2023-06-05T09:16:39.163Z,100583.25
2023-06-05T09:19:06.829Z,100541.13
2023-06-05T09:21:34.703Z,100520.72
2023-06-05T09:24:10.959Z,100598.16
2023-06-05T09:26:54.716Z,100595.06
2023-06-05T09:29:26.721Z,100501.94
2023-06-05T09:31:55.075Z,100594.63
2023-06-05T09:34:41.269Z,100440.53
2023-06-05T09:37:10.606Z,100578.84
2023-06-05T09:39:39.811Z,100517.34
2023-06-05T09:42:07.563Z,100369.28
2023-06-05T09:44:39.973Z,100360.41
2023-06-05T09:47:15.860Z,100353.22
2023-06-05T09:49:47.637Z,100569.72
2023-06-05T09:52:17.612Z,100541.06
2023-06-05T09:54:57.988Z,100479.25
2023-06-05T09:57:34.029Z,100357.09
2023-06-05T10:00:08.428Z,100360.88
2023-06-05T10:02:46.385Z,100425.59
2023-06-05T10:05:24.048Z,100310.81
2023-06-05T10:08:03.725Z,100509.38
2023-06-05T10:11:05.414Z,100431.53
2023-06-05T10:13:32.905Z,100458.38
2023-06-05T10:16:11.387Z,100378.47
2023-06-05T10:18:44.300Z,100554.06
2023-06-05T10:21:43.486Z,100558.06
2023-06-05T10:24:32.178Z,100301.69
2023-06-05T10:27:25.756Z,100557.44
2023-06-05T10:30:33.516Z,100543.88
2023-06-05T10:33:22.084Z,100544.44
2023-06-05T10:36:25.641Z,100310.19
2023-06-05T10:39:05.097Z,100328.84
2023-06-05T10:41:47.467Z,100314.16
2023-06-05T10:44:19.469Z,100325.03
2023-06-05T10:46:46.433Z,100461.19
2023-06-05T10:49:30.451Z,100301.19
2023-06-05T10:52:00.129Z,100409.50
2023-06-05T10:57:20.880Z,100526.03
2023-06-05T11:00:25.374Z,100338.72
2023-06-05T11:02:58.906Z,100336.53
2023-06-05T11:05:51.404Z,100409.97
2023-06-05T11:08:37.483Z,100335.41
2023-06-05T11:11:11.979Z,100434.66
2023-06-05T11:14:03.819Z,100367.09
2023-06-05T11:16:32.747Z,100479.34
2023-06-05T11:19:24.829Z,100519.53
2023-06-05T11:22:04.329Z,100529.59
2023-06-05T11:24:31.594Z,100419.81
2023-06-05T11:26:58.529Z,100291.63
2023-06-05T11:29:32.166Z,100269.16
2023-06-05T11:32:18.316Z,100441.28
2023-06-05T11:34:48.387Z,100465.69
2023-06-05T11:37:19.849Z,100504.56
2023-06-05T11:39:46.433Z,100483.03
2023-06-05T11:42:13.076Z,100402.97
2023-06-05T11:44:39.830Z,100377.53
2023-06-05T11:47:06.783Z,100439.25
2023-06-05T11:49:33.869Z,100362.63
2023-06-05T11:52:01.914Z,100449.44
2023-06-05T11:54:34.955Z,100501.84
2023-06-05T11:57:09.818Z,100284.81
2023-06-05T11:59:37.729Z,100256.00
2023-06-05T12:02:06.003Z,100466.31
2023-06-05T12:04:33.406Z,100466.53
2023-06-05T12:07:03.300Z,100438.03
2023-06-05T12:09:30.983Z,100395.84
2023-06-05T12:12:10.162Z,100324.50
2023-06-05T12:14:39.734Z,100478.41
2023-06-05T12:17:11.262Z,100428.88
2023-06-05T12:19:41.795Z,100319.03
2023-06-05T12:22:10.644Z,100465.09
2023-06-05T12:24:38.000Z,100454.91
2023-06-05T12:27:05.823Z,100382.53
2023-06-05T12:29:40.425Z,100468.31
2023-06-05T12:32:26.763Z,100296.50
2023-06-05T12:35:04.462Z,100310.22
2023-06-05T12:37:45.659Z,100454.03
2023-06-05T12:40:13.027Z,100452.69
2023-06-05T12:42:41.820Z,100312.34
2023-06-05T12:45:09.415Z,100336.44
2023-06-05T12:47:37.101Z,100414.72
2023-06-05T12:50:06.556Z,100301.19
2023-06-05T12:52:33.239Z,100334.56
2023-06-05T12:55:00.693Z,100169.94
2023-06-05T12:57:27.424Z,100384.78
2023-06-05T12:59:55.656Z,100447.75
2023-06-05T13:02:22.869Z,100276.81
2023-06-05T13:04:49.585Z,100416.16
2023-06-05T13:07:18.325Z,100375.66
2023-06-05T13:09:44.911Z,100344.09
2023-06-05T13:12:11.447Z,100393.03
2023-06-05T13:14:38.847Z,100244.19
2023-06-05T13:17:05.956Z,100283.16
2023-06-05T13:19:47.980Z,100191.06
2023-06-05T13:22:14.594Z,100195.94
2023-06-05T13:24:50.029Z,100228.59
2023-06-05T13:27:21.471Z,100170.19
2023-06-05T13:29:48.117Z,100332.81
2023-06-05T13:32:14.919Z,100293.91
2023-06-05T13:34:41.686Z,100372.47
2023-06-05T13:37:14.614Z,100378.91
2023-06-05T13:39:41.566Z,100364.75
2023-06-05T13:42:08.354Z,100377.25
2023-06-05T13:44:35.514Z,100385.56
2023-06-05T13:47:04.244Z,100296.13
2023-06-05T13:49:33.259Z,100233.28
2023-06-05T13:51:59.847Z,100149.41
2023-06-05T13:54:26.582Z,100301.16
2023-06-05T13:56:53.894Z,100171.00
2023-06-05T13:59:21.104Z,100373.34
2023-06-05T14:01:55.983Z,100373.16
2023-06-05T14:04:22.678Z,100271.97
2023-06-05T14:06:49.875Z,100307.47
2023-06-05T14:09:16.460Z,100293.56
2023-06-05T14:11:46.321Z,100285.19
2023-06-05T14:14:13.299Z,100339.44
2023-06-05T14:16:39.920Z,100323.03
2023-06-05T14:19:06.480Z,100249.38
2023-06-05T14:21:33.102Z,100264.28
2023-06-05T14:24:01.620Z,100343.53
2023-06-05T14:26:31.428Z,100248.63
2023-06-05T14:28:59.001Z,100120.22
2023-06-05T14:31:27.282Z,100265.88
2023-06-05T14:33:54.089Z,100359.25
2023-06-05T14:36:20.905Z,100268.19
2023-06-05T14:38:47.513Z,100347.34
2023-06-05T14:41:14.164Z,100241.03
2023-06-05T14:43:40.845Z,100136.09
2023-06-05T14:46:07.663Z,100368.38
2023-06-05T14:48:35.911Z,100246.97
2023-06-05T14:51:02.632Z,100329.69
2023-06-05T14:53:29.896Z,100358.38
2023-06-05T14:55:56.477Z,100388.38
2023-06-05T14:58:23.843Z,100288.31
2023-06-05T15:00:53.508Z,100175.47
2023-06-05T15:03:22.917Z,100284.72
2023-06-05T15:05:49.668Z,100303.53
2023-06-05T15:08:16.189Z,100322.25
2023-06-05T15:10:43.020Z,100376.09
2023-06-05T15:13:09.615Z,100233.00
2023-06-05T15:15:36.893Z,100363.09
2023-06-05T15:18:03.518Z,100364.03
2023-06-05T15:20:30.228Z,100177.16
2023-06-05T15:23:14.820Z,100317.72
2023-06-05T15:25:42.786Z,100370.94
2023-06-05T15:28:09.433Z,100267.16
2023-06-05T15:30:42.965Z,100305.28
2023-06-05T15:33:09.658Z,100138.06
2023-06-05T15:35:36.494Z,100222.44
2023-06-05T15:38:04.126Z,100353.81
2023-06-05T15:40:30.876Z,100346.88
2023-06-05T15:43:13.918Z,100289.75
2023-06-05T15:45:41.472Z,100344.09
2023-06-05T15:48:09.345Z,100165.94
2023-06-05T15:50:36.975Z,100157.34
2023-06-05T15:53:03.905Z,100339.59
2023-06-05T15:55:42.301Z,100345.09
2023-06-05T15:58:11.692Z,100126.41
2023-06-05T16:00:42.417Z,100341.09
2023-06-05T16:03:13.126Z,100194.84
2023-06-05T16:05:44.360Z,100106.56
2023-06-05T16:08:11.236Z,100318.13
2023-06-05T16:10:37.905Z,100180.50
2023-06-05T16:13:04.503Z,100291.47
2023-06-05T16:15:31.522Z,100205.94
2023-06-05T16:17:58.142Z,100089.19
2023-06-05T16:20:26.065Z,100191.72
2023-06-05T16:22:52.871Z,100072.47
2023-06-05T16:25:19.861Z,100317.00
2023-06-05T16:27:46.736Z,100222.50
2023-06-05T16:30:14.493Z,100297.38
2023-06-05T16:32:41.174Z,100188.91
2023-06-05T16:35:07.999Z,100218.72
2023-06-05T16:37:34.937Z,100165.63
2023-06-05T16:40:01.748Z,100301.44
2023-06-05T16:42:28.371Z,100325.88
2023-06-05T16:44:56.292Z,100331.56
2023-06-05T16:47:22.901Z,100327.88
2023-06-05T16:49:49.452Z,100328.72
2023-06-05T16:52:16.127Z,100249.38
2023-06-05T16:54:43.230Z,100331.09
2023-06-05T16:57:09.945Z,100318.81
2023-06-05T16:59:36.953Z,100304.78
2023-06-05T17:02:04.194Z,100163.72
2023-06-05T17:04:31.245Z,100247.75
2023-06-05T17:07:00.319Z,100239.28
2023-06-05T17:09:28.565Z,100340.13
2023-06-05T17:11:57.385Z,100333.28
2023-06-05T17:14:24.266Z,100315.19
2023-06-05T17:16:50.806Z,100259.13
2023-06-05T17:19:17.766Z,100299.47
2023-06-05T17:21:44.977Z,100222.53
2023-06-05T17:24:11.567Z,100238.31
2023-06-05T17:26:38.055Z,100330.38
2023-06-05T17:29:04.984Z,100298.09
2023-06-05T17:31:32.149Z,100307.38
2023-06-05T17:33:58.943Z,100337.41
2023-06-05T17:36:25.687Z,100334.19
2023-06-05T17:38:52.130Z,100316.19
2023-06-05T17:41:18.599Z,100286.00
2023-06-05T17:43:50.160Z,100338.16
2023-06-05T17:46:16.653Z,100320.44
2023-06-05T17:48:44.119Z,100270.44
2023-06-05T17:51:10.931Z,100275.41
2023-06-05T17:53:40.430Z,100338.13
2023-06-05T17:56:07.931Z,100323.66
2023-06-05T17:58:34.495Z,100278.16
2023-06-05T18:01:01.336Z,100290.31
2023-06-05T18:03:30.888Z,100333.81
2023-06-05T18:06:00.501Z,100299.53
2023-06-05T18:08:26.978Z,100200.44
2023-06-05T18:10:54.876Z,100233.28
2023-06-05T18:13:21.885Z,100336.69
2023-06-05T18:15:48.544Z,100331.53
2023-06-05T18:18:16.594Z,100265.00
2023-06-05T18:20:43.320Z,100204.00
2023-06-05T18:23:10.141Z,100279.28
2023-06-05T18:25:36.705Z,100058.16
2023-06-05T18:28:03.226Z,100235.03
2023-06-05T18:30:29.921Z,100243.22
2023-06-05T18:32:56.517Z,100349.13
2023-06-05T18:35:23.582Z,100287.50
2023-06-05T18:37:50.205Z,100152.34
2023-06-05T18:40:16.877Z,100202.59
2023-06-05T18:42:43.393Z,100238.03
2023-06-05T18:45:10.921Z,100356.72
2023-06-05T18:47:39.392Z,100309.19
2023-06-05T18:50:07.207Z,100337.50
2023-06-05T18:52:33.930Z,100336.75
2023-06-05T18:55:01.879Z,100272.25
2023-06-05T18:57:29.133Z,100317.72
2023-06-05T18:59:56.212Z,100348.97
2023-06-05T19:02:24.102Z,100315.19
2023-06-05T19:04:51.021Z,100357.72
2023-06-05T19:07:17.491Z,100323.44
2023-06-05T19:09:43.932Z,100366.09
2023-06-05T19:12:10.915Z,100371.28
2023-06-05T19:14:37.988Z,100365.81
2023-06-05T19:17:05.028Z,100310.47
2023-06-05T19:19:31.895Z,100385.56
2023-06-05T19:21:58.358Z,100382.72
2023-06-05T19:24:25.019Z,100332.03
2023-06-05T19:26:51.656Z,100221.44
2023-06-05T19:29:20.612Z,100361.16
2023-06-05T19:31:47.225Z,100379.28
2023-06-05T19:34:13.977Z,100336.34
2023-06-05T19:36:40.743Z,100296.41
2023-06-05T19:39:08.026Z,100362.31
2023-06-05T19:41:34.699Z,100375.34
2023-06-05T19:44:01.317Z,100386.28
2023-06-05T19:46:27.862Z,100371.81
2023-06-05T19:48:54.547Z,100255.84
2023-06-05T19:51:20.980Z,100384.75
2023-06-05T19:53:47.422Z,100355.75
2023-06-05T19:56:17.965Z,100367.66
2023-06-05T19:58:44.654Z,100264.16
2023-06-05T20:01:11.360Z,100391.47
2023-06-05T20:03:38.890Z,100405.94
2023-06-05T20:06:05.618Z,100407.50
2023-06-05T20:08:32.221Z,100338.13
2023-06-05T20:10:58.684Z,100327.03
2023-06-05T20:13:25.159Z,100363.31
2023-06-05T20:15:51.683Z,100402.31
2023-06-05T20:18:18.251Z,100357.88
2023-06-05T20:20:44.761Z,100337.41
2023-06-05T20:23:11.376Z,100385.91
2023-06-05T20:25:37.942Z,100310.66
2023-06-05T20:28:05.229Z,100399.94
2023-06-05T20:30:35.694Z,100317.44
2023-06-05T20:33:05.281Z,100344.91
2023-06-05T20:35:36.922Z,100409.56
2023-06-05T20:38:10.712Z,100416.78
2023-06-05T20:40:41.026Z,100423.13
2023-06-05T20:43:12.789Z,100424.38
2023-06-05T20:45:43.161Z,100421.81
2023-06-05T20:48:12.372Z,100422.03
2023-06-05T20:50:43.291Z,100409.53
2023-06-05T20:53:10.406Z,100427.13
2023-06-05T20:55:37.170Z,100421.41
2023-06-05T20:58:06.790Z,100417.81
2023-06-05T21:00:34.230Z,100419.19
2023-06-05T21:03:01.989Z,100430.66
2023-06-05T21:05:28.674Z,100428.25
2023-06-05T21:07:56.203Z,100421.28
2023-06-05T21:10:24.244Z,100429.34
2023-06-05T21:12:50.871Z,100436.13
2023-06-05T21:15:18.792Z,100418.81
2023-06-05T21:17:45.387Z,100421.75
2023-06-05T21:20:12.181Z,100427.41
2023-06-05T21:22:38.984Z,100429.81
2023-06-05T21:25:07.071Z,100432.06
2023-06-05T21:27:33.602Z,100439.81
2023-06-05T21:30:02.150Z,100439.81
2023-06-05T21:32:28.919Z,100430.22
2023-06-05T21:35:01.109Z,100437.88
2023-06-05T21:37:27.949Z,100448.06
2023-06-05T21:39:54.685Z,100450.38
2023-06-05T21:42:21.466Z,100449.78
2023-06-05T21:44:48.812Z,100450.19
2023-06-05T21:47:18.710Z,100451.75
2023-06-05T21:49:45.538Z,100446.91
2023-06-05T21:52:13.503Z,100456.94
2023-06-05T21:54:43.849Z,100458.16
2023-06-05T21:57:11.241Z,100449.78
2023-06-05T21:59:39.466Z,100444.75
2023-06-05T22:02:07.613Z,100463.53
2023-06-05T22:04:40.606Z,100451.59
2023-06-05T22:07:08.050Z,100460.03
2023-06-05T22:09:38.152Z,100464.56
2023-06-05T22:12:06.686Z,100461.38
2023-06-05T22:14:34.166Z,100465.19
2023-06-05T22:17:00.849Z,100461.53
2023-06-05T22:19:28.950Z,100464.22
2023-06-05T22:21:55.698Z,100463.63
2023-06-05T22:24:27.038Z,100470.34
2023-06-05T22:26:54.183Z,100470.72
2023-06-05T22:29:20.950Z,100462.19
2023-06-05T22:31:47.511Z,100478.66
2023-06-05T22:34:14.309Z,100469.13
2023-06-05T22:36:45.102Z,100473.78
2023-06-05T22:39:11.912Z,100475.72
2023-06-05T22:41:41.961Z,100479.75
2023-06-05T22:44:08.461Z,100481.00
2023-06-05T22:46:34.920Z,100473.03
2023-06-05T22:49:02.481Z,100482.78
2023-06-05T22:51:30.500Z,100489.41
2023-06-05T22:53:57.845Z,100479.88
2023-06-05T22:56:24.681Z,100482.81
2023-06-05T22:58:51.600Z,100486.09
2023-06-05T23:01:18.591Z,100488.16
2023-06-05T23:03:46.505Z,100484.97
2023-06-05T23:06:13.534Z,100483.63
2023-06-05T23:08:40.133Z,100483.25
2023-06-05T23:11:06.879Z,100474.47
2023-06-05T23:13:33.427Z,100477.41
2023-06-05T23:16:00.359Z,100473.00
2023-06-05T23:18:28.650Z,100474.09
2023-06-05T23:20:55.693Z,100476.38
2023-06-05T23:23:25.645Z,100474.44
2023-06-05T23:25:53.296Z,100475.97
2023-06-05T23:28:20.255Z,100483.06
2023-06-05T23:30:49.034Z,100478.06
2023-06-05T23:33:16.590Z,100474.75
2023-06-05T23:35:43.345Z,100469.50
2023-06-05T23:38:10.062Z,100484.56
2023-06-05T23:40:36.785Z,100487.41
2023-06-05T23:43:03.320Z,100486.78
2023-06-05T23:45:36.161Z,100485.16
2023-06-05T23:48:03.193Z,100486.38
2023-06-05T23:50:32.586Z,100474.41
2023-06-05T23:52:59.154Z,100471.84
2023-06-05T23:55:27.561Z,100483.53
2023-06-05T23:57:54.879Z,100476.59
